Tiempo atmosférico en la estación meteorológica de Blanes, Girona (60 m.)

Fecha
DESCASC
Temp. máxima en grados centígrados (hora)
DESCASC
Temp. mínima en grados centígrados (hora)
DESCASC
Temp. media en grados centígrados
DESCASC
Racha de viento máxima en m/sg (hora)
DESCASC
Velocidad máxima media en intervalos de 10 minutos(hora)
DESCASC
Precipitaciones diarias en mm
DESCASC
Precipitaciones de 00:00 a 06:00 en mm
DESCASC
Precipitaciones de 06:00 a 12:00 en mm
DESCASC
Precipitaciones de 12:00 a 18:00 en mm
DESCASC
Precipitaciones de 18:00 a 24:00 en mm
DESCASC
23-11-2017 19.5 (13:40) 12.4 (23:59) 15.9 12.78 (17:00) 7.5 (12:40) 0 0 0 0 0
22-11-2017 18.3 (13:00) 12 (06:40) 15.1 12.22 (14:30) 7.78 (14:20) 0 0 0 0 0
21-11-2017 18.8 (14:00) 10.1 (05:50) 14.4 7.78 (02:10) 5.56 (02:40) 0 0 0 0 0
20-11-2017 19.4 (14:10) 10 (06:00) 14.7 7.78 (05:30) 5.56 (05:40) 0 0 0 0 0
19-11-2017 17.3 (13:30) 10 (00:00) 13.6 6.67 (03:30) 4.72 (01:20) 0 0 0 0 0
18-11-2017 19.2 (13:10) 10.5 (00:00) 14.9 6.94 (06:30) 4.72 (06:20) 0 0 0 0 0
17-11-2017 20 (14:00) 8.2 (00:00) 14.1 8.89 (02:50) 6.39 (02:50) 0 0 0 0 0
16-11-2017 16.5 (15:10) 7.2 (00:00) 11.8 10.56 (00:30) 6.11 (00:20) 0 0 0 0 0
15-11-2017 17.6 (14:50) 5.8 (00:00) 11.7 8.89 (05:30) 6.39 (06:00) 0 0 0 0 0
14-11-2017 16.3 (13:20) 7 (00:00) 11.6 14.17 (14:50) 7.22 (14:00) 0 0 0 0 0
13-11-2017 15.6 (13:10) 9 (00:00) 12.3 17.5 (15:50) 6.67 (14:50) 0 0 0 0 0
12-11-2017 19.3 (14:30) 11.3 (00:00) 15.3 7.22 (08:40) 5 (05:10) 0 0 0 0 0
11-11-2017 16.2 (13:50) 9.8 (00:00) 13 8.33 (00:20) 5.28 (00:20) 0 0 0 0 0
10-11-2017 17 (13:40) 6.5 (00:00) 11.8 9.17 (08:30) 6.11 (08:30) 0 0 0 0 0
09-11-2017 13.2 (11:30) 6.8 (00:00) 10 9.17 (22:10) 5.83 (19:50) 0 0 0 0 0
08-11-2017 15 (11:50) 7.4 (00:00) 11.2 7.5 (00:10) 5.56 (06:20) 0 0 0 0 0
07-11-2017 16.9 (14:00) 6.3 (00:00) 11.6 10.28 (03:10) 7.22 (03:20) 0 0 0 0 0
06-11-2017 16.6 (16:00) 7.9 (00:00) 12.3 14.72 (12:30) 6.67 (11:20) 0 0 0 0 0
05-11-2017 18.6 (13:40) 10.6 (00:00) 14.6 8.61 (17:40) 5.83 (17:50) 11.2 1 0 6.6 3.6
04-11-2017 22.6 (15:30) 15 (00:00) 18.8 11.11 (20:40) 5.83 (22:10) 6.8 0 0 0 6.8
03-11-2017 22.4 (13:40) 12.7 (00:00) 17.5 11.67 (17:00) 6.67 (15:50) 0 0 0 0 0
02-11-2017 21.9 (13:10) 15.9 (02:00) 18.9 14.17 (14:10) 8.33 (13:30) 0 0 0 0 0
01-11-2017 21.8 (13:50) 11.7 (00:00) 16.7 7.22 (17:30) 4.44 (00:30) 0 0 0 0 0
31-10-2017 19.7 (13:30) 10.7 (00:00) 15.2 8.61 (00:10) 5.83 (00:10) 0 0 0 0 0
30-10-2017 21.2 (14:10) 12.3 (00:00) 16.8 9.17 (23:59) 6.39 (21:30) 0 0 0 0 0
29-10-2017 22.7 (13:50) 13.7 (00:00) 18.2 7.5 (09:30) 5 (09:30) 0 0 0 0 0
28-10-2017 23.1 (15:40) 14.8 (00:00) 19 10.28 (16:40) 5 (16:40) 0 0 0 0 0
27-10-2017 21.1 (16:10) 15 (00:00) 18.1 6.39 (05:30) 3.89 (03:00) 0 0 0 0 0
26-10-2017 21.9 (16:40) 15.2 (00:00) 18.5 3.61 (18:10) 2.5 (13:50) 0 0 0 0 0

Gráficas

Temp. máximas Temp. mínimas Temp. medias Precipitaciones Rachas de viento máximas Velocidades máximas media en intervalos de 10 minutos

Datos horarios

Fecha y hora oficial Temperatura (ºC) Velocidad del viento (km/h) Dirección del viento Racha (km/h) Dirección de racha Precipitación (mm) Presión (hPa) Tendencia (hPa) Humedad (%)
2017-11-24 23:00:00 13.9 4 Nordeste 8 Este 0 -- -- 90
2017-11-24 22:00:00 14.3 3 Este 11 Nordeste 0 -- -- 89
2017-11-24 21:00:00 14.7 6 Nordeste 15 Nordeste 0 -- -- 89
2017-11-24 20:00:00 15.1 3 Sudeste 8 Nordeste 0 -- -- 88
2017-11-24 19:00:00 15.8 2 Sudoeste 9 Noroeste 0 -- -- 84
2017-11-24 18:00:00 16.4 7 Norte 17 Sudoeste 0 -- -- 83
2017-11-24 17:00:00 17.2 12 Sudoeste 23 Oeste 0 -- -- 79
2017-11-24 16:00:00 16.8 8 Sudoeste 18 Sudoeste 0 -- -- 75
2017-11-24 15:00:00 16.9 7 Este 12 Sudeste 0 -- -- 84
2017-11-24 14:00:00 18.1 8 Sur 17 Sur 0 -- -- 75
2017-11-24 13:00:00 16.8 5 Este 10 Este 0 -- -- 84
2017-11-24 12:00:00 15.4 3 Norte 10 Noroeste 0 -- -- 87
2017-11-24 11:00:00 13.1 10 Noroeste 13 Norte 0 -- -- 91
2017-11-24 10:00:00 11.8 11 Noroeste 19 Noroeste 0 -- -- 95
2017-11-24 09:00:00 10.5 14 Noroeste 22 Noroeste 0 -- -- 97
2017-11-24 08:00:00 10.6 15 Noroeste 21 Noroeste 0 -- -- 96
2017-11-24 07:00:00 11.9 12 Noroeste 15 Noroeste 0 -- -- 94
2017-11-24 06:00:00 12.4 9 Noroeste 12 Noroeste 0 -- -- 97
2017-11-24 05:00:00 12.1 4 Noroeste 12 Noroeste 0 -- -- 96
2017-11-24 04:00:00 12.3 5 Noroeste 13 Noroeste 0 -- -- 94
2017-11-24 03:00:00 12.7 5 Norte 12 Norte 0 -- -- 94
2017-11-24 02:00:00 12.4 8 Norte 15 Noroeste 0 -- -- 91
2017-11-24 01:00:00 12.5 9 Noroeste 14 Noroeste 0 -- -- 92
2017-11-24 00:00:00 12.4 4 Nordeste 17 Noroeste 0 -- -- 93
2017-11-23 23:00:00 12.5 9 Noroeste 13 Noroeste 0 -- -- 94
2017-11-23 22:00:00 13.3 3 Norte 13 Noroeste 0 -- -- 90
2017-11-23 21:00:00 14.8 5 Norte 16 Oeste 0 -- -- 88
2017-11-23 20:00:00 15.6 8 Noroeste 19 Oeste 0 -- -- 90
2017-11-23 19:00:00 16 7 Noroeste 31 Noroeste 0 -- -- 91
2017-11-23 18:00:00 16.2 11 Sudoeste 35 Sur 0 -- -- 91
2017-11-23 17:00:00 16.7 17 Sur 46 Sur 0 -- -- 88
2017-11-23 16:00:00 17.3 18 Sur 40 Sudoeste 0 -- -- 85
2017-11-23 15:00:00 18.2 25 Sur 41 Sur 0 -- -- 78
2017-11-23 14:00:00 19.5 15 Sur 38 Sudoeste 0 -- -- 72
2017-11-23 13:00:00 18.9 26 Sur 41 Sur 0 -- -- 73
2017-11-23 12:00:00 18.3 21 Sur 36 Sudoeste 0 -- -- 73
2017-11-23 11:00:00 17.5 13 Sudoeste 33 Oeste 0 -- -- 72
2017-11-23 10:00:00 17.2 10 Sur 20 Sur 0 -- -- 74
2017-11-23 09:00:00 15.2 8 Sudoeste 23 Sudoeste 0 -- -- 81
2017-11-23 08:00:00 14.2 18 Sudoeste 36 Oeste 0 -- -- 85
2017-11-23 07:00:00 13.7 9 Sudoeste 18 Sudoeste 0 -- -- 85
2017-11-23 06:00:00 13.5 10 Sudoeste 18 Sudoeste 0 -- -- 88
2017-11-23 05:00:00 13.6 5 Sudoeste 19 Sudoeste 0 -- -- 85
2017-11-23 04:00:00 13.6 10 Sudoeste 20 Sudoeste 0 -- -- 83
2017-11-23 03:00:00 13.7 10 Sudoeste 19 Sudoeste 0 -- -- 82
2017-11-23 02:00:00 13.9 10 Sudoeste 21 Sudoeste 0 -- -- 83
2017-11-23 01:00:00 13.9 8 Sudoeste 17 Oeste 0 -- -- 81
2017-11-23 00:00:00 14.3 8 Oeste 21 Sudoeste 0 -- -- 82
2017-11-22 23:00:00 14.3 8 Oeste 21 Oeste 0 -- -- 81
2017-11-22 22:00:00 14.3 12 Sudoeste 21 Sudoeste 0 -- -- 88
2017-11-22 21:00:00 15.1 10 Oeste 20 Oeste 0 -- -- 87
2017-11-22 20:00:00 15.9 14 Sudoeste 39 Sur 0 -- -- 83
2017-11-22 19:00:00 15.9 10 Sudoeste 21 Sur 0 -- -- 87
2017-11-22 18:00:00 15.9 12 Sudoeste 28 Sudoeste 0 -- -- 86
2017-11-22 17:00:00 16.6 13 Sur 35 Sur 0 -- -- 82
2017-11-22 16:00:00 17.3 19 Sur 41 Sudoeste 0 -- -- 78
2017-11-22 15:00:00 18 24 Sur 44 Sudoeste 0 -- -- 74
2017-11-22 14:00:00 18.3 25 Sur 42 Sudoeste 0 -- -- 73
2017-11-22 13:00:00 18.3 26 Sur 42 Sudoeste 0 -- -- 70
2017-11-22 12:00:00 17.8 16 Sur 36 Sur 0 -- -- 71
2017-11-22 11:00:00 17.2 13 Sudoeste 28 Sudoeste 0 -- -- 73
2017-11-22 10:00:00 15.6 10 Sudoeste 23 Oeste 0 -- -- 75
2017-11-22 09:00:00 13.5 13 Sudoeste 21 Oeste 0 -- -- 75
2017-11-22 08:00:00 12.8 12 Oeste 18 Sudoeste 0 -- -- 72
2017-11-22 07:00:00 12 11 Oeste 27 Sudoeste 0 -- -- 66
2017-11-22 06:00:00 12.9 10 Oeste 21 Oeste 0 -- -- 63
2017-11-22 05:00:00 12.6 9 Oeste 16 Oeste 0 -- -- 70
2017-11-22 04:00:00 12.7 11 Oeste 17 Oeste 0 -- -- 68
2017-11-22 03:00:00 13.1 8 Oeste 16 Oeste 0 -- -- 67
2017-11-22 02:00:00 13.4 8 Oeste 14 Oeste 0 -- -- 71
2017-11-22 01:00:00 13.5 6 Oeste 12 Oeste 0 -- -- 73
2017-11-22 00:00:00 13.3 5 Oeste 11 Sudoeste 0 -- -- 71
2017-11-21 23:00:00 13.2 3 Oeste 9 Oeste 0 -- -- 66
2017-11-21 22:00:00 13.2 4 Oeste 13 Noroeste 0 -- -- 64
2017-11-21 21:00:00 12.9 3 Sur 6 Sudoeste 0 -- -- 77
2017-11-21 20:00:00 13.2 3 Oeste 5 Oeste 0 -- -- 75
2017-11-21 19:00:00 13.9 4 Noroeste 7 Oeste 0 -- -- 77
2017-11-21 18:00:00 14.7 5 Oeste 7 Oeste 0 -- -- 73
2017-11-21 17:00:00 16.9 3 Sur 6 Este 0 -- -- 66
2017-11-21 16:00:00 17.3 2 Este 10 Este 0 -- -- 65
2017-11-21 15:00:00 17.9 5 Sudeste 10 Sudeste 0 -- -- 61
2017-11-21 14:00:00 18.8 6 Sudeste 10 Sur 0 -- -- 59
2017-11-21 13:00:00 18.2 4 Este 8 Sudeste 0 -- -- 61
2017-11-21 12:00:00 18.1 4 Este 8 Sudeste 0 -- -- 57
2017-11-21 11:00:00 17.9 4 Este 8 Este 0 -- -- 56
2017-11-21 10:00:00 15.6 2 Norte 11 Norte 0 -- -- 52
2017-11-21 09:00:00 13.6 6 Norte 13 Norte 0 -- -- 54
2017-11-21 08:00:00 11.7 7 Noroeste 10 Norte 0 -- -- 57
2017-11-21 07:00:00 11 6 Norte 15 Noroeste 0 -- -- 60
2017-11-21 06:00:00 10.4 8 Noroeste 17 Noroeste 0 -- -- 65
2017-11-21 05:00:00 10.2 4 Noroeste 24 Noroeste 0 -- -- 66
2017-11-21 04:00:00 11.2 18 Noroeste 26 Noroeste 0 -- -- 61
2017-11-21 03:00:00 11.8 18 Noroeste 28 Noroeste 0 -- -- 60
2017-11-21 02:00:00 12.3 18 Noroeste 25 Noroeste 0 -- -- 56
2017-11-21 01:00:00 13.2 12 Noroeste 18 Noroeste 0 -- -- 55
2017-11-21 00:00:00 13.4 9 Noroeste 18 Noroeste 0 -- -- 57
2017-11-20 23:00:00 12.2 4 Oeste 11 Noroeste 0 -- -- 68
2017-11-20 22:00:00 14.1 5 Noroeste 18 Oeste 0 -- -- 65
2017-11-20 21:00:00 14.2 7 Oeste 17 Oeste 0 -- -- 62
2017-11-20 20:00:00 14.5 9 Oeste 17 Oeste 0 -- -- 63
2017-11-20 19:00:00 14.3 9 Oeste 19 Oeste 0 -- -- 63
2017-11-20 18:00:00 14.8 8 Oeste 17 Sudoeste 0 -- -- 64
2017-11-20 17:00:00 16.3 7 Sudoeste 26 Sur 0 -- -- 69
2017-11-20 16:00:00 17.3 9 Sur 20 Sur 0 -- -- 68
2017-11-20 15:00:00 18.6 11 Sur 18 Sudoeste 0 -- -- 65
2017-11-20 14:00:00 19.3 9 Sur 15 Sur 0 -- -- 62
2017-11-20 13:00:00 18.9 7 Sur 12 Oeste 0 -- -- 57
2017-11-20 12:00:00 17.3 5 Sudoeste 10 Sudoeste 0 -- -- 60
2017-11-20 11:00:00 14.3 9 Noroeste 18 Noroeste 0 -- -- 66
2017-11-20 10:00:00 12.1 13 Noroeste 19 Noroeste 0 -- -- 68
2017-11-20 09:00:00 11.4 14 Noroeste 19 Noroeste 0 -- -- 66
2017-11-20 08:00:00 10.8 17 Noroeste 25 Noroeste 0 -- -- 67
2017-11-20 07:00:00 11.1 16 Noroeste 25 Noroeste 0 -- -- 65
2017-11-20 06:00:00 10 18 Noroeste 28 Noroeste 0 -- -- 67
2017-11-20 05:00:00 10.8 16 Noroeste 22 Noroeste 0 -- -- 71
2017-11-20 04:00:00 10.8 8 Noroeste 15 Noroeste 0 -- -- 70
2017-11-20 03:00:00 10.7 9 Noroeste 13 Noroeste 0 -- -- 69
2017-11-20 02:00:00 10.1 9 Noroeste 16 Noroeste 0 -- -- 73
2017-11-20 01:00:00 11.3 3 Nordeste 17 Noroeste 0 -- -- 70
2017-11-20 00:00:00 11.4 5 Norte 10 Noroeste 0 -- -- 67
2017-11-19 23:00:00 12.8 6 Norte 21 Noroeste 0 -- -- 66
2017-11-19 22:00:00 13.3 14 Noroeste 22 Noroeste 0 -- -- 65
2017-11-19 21:00:00 13.5 14 Noroeste 20 Noroeste 0 -- -- 65
2017-11-19 20:00:00 13.7 9 Noroeste 12 Noroeste 0 -- -- 80
2017-11-19 19:00:00 13.9 6 Oeste 10 Sudoeste 0 -- -- 73
2017-11-19 18:00:00 14.3 6 Oeste 9 Sudoeste 0 -- -- 76
2017-11-19 17:00:00 16.1 0 Calma 5 Nordeste 0 -- -- 78
2017-11-19 16:00:00 16.7 2 Sur 8 Este 0 -- -- 75
2017-11-19 15:00:00 17.3 5 Sudeste 10 Este 0 -- -- 74
2017-11-19 14:00:00 17.1 6 Este 11 Este 0 -- -- 77
2017-11-19 13:00:00 17 4 Sudeste 7 Sudeste 0 -- -- 74
2017-11-19 12:00:00 16.8 3 Este 7 Noroeste 0 -- -- 74
2017-11-19 11:00:00 14.2 7 Noroeste 14 Noroeste 0 -- -- 76
2017-11-19 10:00:00 12 12 Noroeste 15 Norte 0 -- -- 79
2017-11-19 09:00:00 10.5 13 Noroeste 15 Noroeste 0 -- -- 86
2017-11-19 08:00:00 10.2 10 Noroeste 14 Noroeste 0 -- -- 85
2017-11-19 07:00:00 10.3 12 Noroeste 20 Noroeste 0 -- -- 79
2017-11-19 06:00:00 11.1 12 Noroeste 16 Noroeste 0 -- -- 77
2017-11-19 05:00:00 11.2 14 Noroeste 17 Noroeste 0 -- -- 76
2017-11-19 04:00:00 11.5 14 Noroeste 24 Noroeste 0 -- -- 76
2017-11-19 03:00:00 11.7 13 Noroeste 20 Noroeste 0 -- -- 79
2017-11-19 02:00:00 12.3 12 Noroeste 22 Noroeste 0 -- -- 80
2017-11-19 01:00:00 12.6 14 Noroeste 19 Noroeste 0 -- -- 80
2017-11-19 00:00:00 11.9 0 Calma 5 Noroeste 0 -- -- 89
2017-11-18 23:00:00 12.9 3 Norte 5 Norte 0 -- -- 88
2017-11-18 22:00:00 13.2 2 Nordeste 3 Este 0 -- -- 85
2017-11-18 21:00:00 13.4 0 Calma 3 Sudoeste 0 -- -- 85
2017-11-18 20:00:00 13.6 0 Calma 7 Oeste 0 -- -- 83
2017-11-18 19:00:00 14.1 4 Sudoeste 8 Sudoeste 0 -- -- 79
2017-11-18 18:00:00 15.1 4 Sur 9 Sudeste 0 -- -- 75
2017-11-18 17:00:00 16.9 3 Sudeste 10 Sur 0 -- -- 67
2017-11-18 16:00:00 17.5 3 Sur 10 Sur 0 -- -- 64
2017-11-18 15:00:00 18 5 Sudeste 13 Este 0 -- -- 61
2017-11-18 14:00:00 17.7 7 Sudeste 10 Sudeste 0 -- -- 59
2017-11-18 13:00:00 19.1 6 Sur 9 Sudeste 0 -- -- 56
2017-11-18 12:00:00 16.9 5 Noroeste 8 Norte 0 -- -- 58
2017-11-18 11:00:00 15.2 3 Norte 15 Noroeste 0 -- -- 64
2017-11-18 10:00:00 13.6 12 Noroeste 18 Noroeste 0 -- -- 64
2017-11-18 09:00:00 12.1 13 Noroeste 21 Norte 0 -- -- 66
2017-11-18 08:00:00 11.6 15 Noroeste 19 Noroeste 0 -- -- 70
2017-11-18 07:00:00 12 12 Noroeste 25 Noroeste 0 -- -- 72
2017-11-18 06:00:00 12.2 8 Noroeste 18 Noroeste 0 -- -- 73
2017-11-18 05:00:00 13 12 Noroeste 19 Noroeste 0 -- -- 64
2017-11-18 04:00:00 13 15 Noroeste 19 Noroeste 0 -- -- 69
2017-11-18 03:00:00 13.1 7 Norte 18 Noroeste 0 -- -- 75
2017-11-18 02:00:00 12.7 15 Noroeste 20 Noroeste 0 -- -- 65
2017-11-18 01:00:00 12.9 8 Noroeste 13 Norte 0 -- -- 79
2017-11-18 00:00:00 13 7 Noroeste 22 Noroeste 0 -- -- 78
2017-11-17 23:00:00 12 16 Noroeste 22 Noroeste 0 -- -- 72
2017-11-17 22:00:00 13.4 8 Norte 11 Norte 0 -- -- 76
2017-11-17 21:00:00 13.7 7 Norte 13 Nordeste 0 -- -- 73
2017-11-17 20:00:00 13.9 6 Norte 10 Nordeste 0 -- -- 74
2017-11-17 19:00:00 14.8 5 Nordeste 12 Nordeste 0 -- -- 76
2017-11-17 18:00:00 15.6 5 Nordeste 19 Este 0 -- -- 77
2017-11-17 17:00:00 17.3 3 Este 9 Oeste 0 -- -- 62
2017-11-17 16:00:00 18.6 7 Sudoeste 15 Oeste 0 -- -- 55
2017-11-17 15:00:00 19.4 4 Sur 17 Sudoeste 0 -- -- 47
2017-11-17 14:00:00 20 7 Sur 18 Sudoeste 0 -- -- 52
2017-11-17 13:00:00 18.9 9 Sudoeste 22 Oeste 0 -- -- 55
2017-11-17 12:00:00 17 5 Noroeste 13 Noroeste 0 -- -- 37
2017-11-17 11:00:00 14.6 2 Norte 15 Noroeste 0 -- -- 56
2017-11-17 10:00:00 12.7 8 Noroeste 21 Noroeste 0 -- -- 54
2017-11-17 09:00:00 11.5 9 Noroeste 23 Noroeste 0 -- -- 51
2017-11-17 08:00:00 8.2 19 Noroeste 26 Noroeste 0 -- -- 65
2017-11-17 07:00:00 10.5 18 Noroeste 32 Noroeste 0 -- -- 56
2017-11-17 06:00:00 9.8 20 Noroeste 28 Noroeste 0 -- -- 61
2017-11-17 05:00:00 9.5 19 Noroeste 31 Noroeste 0 -- -- 65
2017-11-17 04:00:00 10.1 17 Noroeste 30 Noroeste 0 -- -- 72
2017-11-17 03:00:00 9.9 22 Noroeste 32 Noroeste 0 -- -- 73
2017-11-17 02:00:00 9.7 18 Noroeste 24 Noroeste 0 -- -- 78
2017-11-17 01:00:00 9.8 15 Noroeste 20 Noroeste 0 -- -- 85
2017-11-17 00:00:00 10.1 9 Noroeste 19 Norte 0 -- -- 86
2017-11-16 23:00:00 10.2 10 Norte 18 Norte 0 -- -- 86
2017-11-16 22:00:00 11.6 7 Norte 12 Noroeste 0 -- -- 84
2017-11-16 21:00:00 12.2 6 Noroeste 10 Noroeste 0 -- -- 85
2017-11-16 20:00:00 12.8 4 Sur 9 Sudoeste 0 -- -- 82
2017-11-16 19:00:00 13.4 5 Oeste 12 Oeste 0 -- -- 80
2017-11-16 18:00:00 13.8 5 Oeste 17 Sudoeste 0 -- -- 76
2017-11-16 17:00:00 15 9 Sudoeste 23 Sudoeste 0 -- -- 71
2017-11-16 16:00:00 15.9 10 Sur 17 Sur 0 -- -- 67
2017-11-16 15:00:00 16.4 5 Sur 12 Sur 0 -- -- 64
2017-11-16 14:00:00 15.7 6 Sudeste 10 Sudeste 0 -- -- 60
2017-11-16 13:00:00 16.1 5 Este 12 Este 0 -- -- 58
2017-11-16 12:00:00 16.1 5 Sudeste 9 Sudeste 0 -- -- 58
2017-11-16 11:00:00 14 5 Nordeste 10 Este 0 -- -- 61
2017-11-16 10:00:00 12.5 5 Nordeste 14 Noroeste 0 -- -- 60
2017-11-16 09:00:00 9.3 10 Noroeste 22 Norte 0 -- -- 63
2017-11-16 08:00:00 7.5 18 Norte 23 Noroeste 0 -- -- 66
2017-11-16 07:00:00 8 15 Noroeste 28 Nordeste 0 -- -- 62
2017-11-16 06:00:00 8.1 17 Norte 23 Noroeste 0 -- -- 62
2017-11-16 05:00:00 8.2 18 Norte 28 Noroeste 0 -- -- 61
2017-11-16 04:00:00 8.6 17 Norte 25 Noroeste 0 -- -- 59
2017-11-16 03:00:00 8.1 18 Noroeste 22 Noroeste 0 -- -- 59
2017-11-16 02:00:00 8.6 15 Noroeste 24 Norte 0 -- -- 60
2017-11-16 01:00:00 9.3 17 Norte 38 Norte 0 -- -- 58
2017-11-16 00:00:00 9.5 10 Norte 23 Norte 0 -- -- 58
2017-11-15 23:00:00 10.3 13 Noroeste 18 Noroeste 0 -- -- 61
2017-11-15 22:00:00 11 13 Noroeste 17 Noroeste 0 -- -- 62
2017-11-15 21:00:00 12 10 Noroeste 16 Noroeste 0 -- -- 60
2017-11-15 20:00:00 11.2 4 Noroeste 6 Noroeste 0 -- -- 60
2017-11-15 19:00:00 12 0 Calma 6 Sudoeste 0 -- -- 58
2017-11-15 18:00:00 12.8 4 Sudoeste 13 Oeste 0 -- -- 57
2017-11-15 17:00:00 15.3 5 Sudoeste 9 Sur 0 -- -- 56
2017-11-15 16:00:00 16.4 5 Sur 13 Sudoeste 0 -- -- 59
2017-11-15 15:00:00 17.6 8 Sur 13 Sur 0 -- -- 49
2017-11-15 14:00:00 17.2 7 Sur 12 Sur 0 -- -- 49
2017-11-15 13:00:00 17.2 5 Sur 10 Sudoeste 0 -- -- 43
2017-11-15 12:00:00 16.3 5 Sur 10 Noroeste 0 -- -- 45
2017-11-15 11:00:00 13.9 4 Sur 11 Noroeste 0 -- -- 49
2017-11-15 10:00:00 10.6 9 Noroeste 14 Norte 0 -- -- 46
2017-11-15 09:00:00 8.4 9 Noroeste 21 Noroeste 0 -- -- 48
2017-11-15 08:00:00 7.6 17 Norte 26 Noroeste 0 -- -- 47
2017-11-15 07:00:00 7.3 16 Noroeste 30 Noroeste 0 -- -- 47
2017-11-15 06:00:00 6 23 Noroeste 32 Norte 0 -- -- 53
2017-11-15 05:00:00 7 14 Noroeste 18 Noroeste 0 -- -- 52
2017-11-15 04:00:00 6.8 14 Noroeste 24 Norte 0 -- -- 53
2017-11-15 03:00:00 7 14 Noroeste 24 Norte 0 -- -- 53
2017-11-15 02:00:00 6.8 16 Norte 24 Noroeste 0 -- -- 56
2017-11-15 01:00:00 7.4 15 Norte 21 Norte 0 -- -- 56
2017-11-15 00:00:00 7.5 7 Norte 28 Noroeste 0 -- -- 56
2017-11-14 23:00:00 8.3 18 Norte 30 Norte 0 -- -- 51
2017-11-14 22:00:00 8.8 18 Noroeste 24 Norte 0 -- -- 49
2017-11-14 21:00:00 9.5 13 Norte 22 Norte 0 -- -- 43
2017-11-14 20:00:00 10.3 14 Norte 22 Nordeste 0 -- -- 39
2017-11-14 19:00:00 11.1 6 Norte 22 Nordeste 0 -- -- 36
2017-11-14 18:00:00 12.2 5 Oeste 27 Nordeste 0 -- -- 32
2017-11-14 17:00:00 13.5 11 Nordeste 38 Este 0 -- -- 30
2017-11-14 16:00:00 14.4 16 Nordeste 46 Este 0 -- -- 28
2017-11-14 15:00:00 14.9 18 Nordeste 51 Nordeste 0 -- -- 24
2017-11-14 14:00:00 15.7 26 Nordeste 45 Nordeste 0 -- -- 23
2017-11-14 13:00:00 16.2 14 Norte 42 Norte 0 -- -- 20
2017-11-14 12:00:00 15.5 6 Noroeste 24 Noroeste 0 -- -- 25
2017-11-14 11:00:00 14.1 4 Nordeste 14 Norte 0 -- -- 26
2017-11-14 10:00:00 11.2 5 Noroeste 21 Noroeste 0 -- -- 32
2017-11-14 09:00:00 9.1 10 Noroeste 21 Norte 0 -- -- 33
2017-11-14 08:00:00 8.8 13 Noroeste 27 Noroeste 0 -- -- 31
2017-11-14 07:00:00 8 8 Noroeste 20 Norte 0 -- -- 34
2017-11-14 06:00:00 8.3 14 Noroeste 23 Noroeste 0 -- -- 33
2017-11-14 05:00:00 9.3 10 Norte 23 Norte 0 -- -- 31
2017-11-14 04:00:00 9.4 15 Norte 27 Norte 0 -- -- 31
2017-11-14 03:00:00 9.7 13 Noroeste 27 Norte 0 -- -- 29
2017-11-14 02:00:00 9.4 13 Noroeste 21 Norte 0 -- -- 27
2017-11-14 01:00:00 9.2 5 Norte 20 Noroeste 0 -- -- 30
2017-11-14 00:00:00 9.4 8 Oeste 22 Noroeste 0 -- -- 34
2017-11-13 23:00:00 9.5 4 Oeste 15 Norte 0 -- -- 30
2017-11-13 22:00:00 9.3 3 Noroeste 15 Noroeste 0 -- -- 33
2017-11-13 21:00:00 9.4 9 Noroeste 17 Oeste 0 -- -- 32
2017-11-13 20:00:00 10.3 5 Sudoeste 13 Sudoeste 0 -- -- 34
2017-11-13 19:00:00 11.2 5 Nordeste 18 Nordeste 0 -- -- 29
2017-11-13 18:00:00 12 9 Norte 36 Nordeste 0 -- -- 27
2017-11-13 17:00:00 13.2 12 Norte 61 Nordeste 0 -- -- 25
2017-11-13 16:00:00 14.1 20 Nordeste 63 Nordeste 0 -- -- 22
2017-11-13 15:00:00 14.6 16 Nordeste 61 Nordeste 0 -- -- 22
2017-11-13 14:00:00 15.3 14 Sudeste 49 Este 0 -- -- 24
2017-11-13 13:00:00 15.2 15 Nordeste 57 Nordeste 0 -- -- 21
2017-11-13 12:00:00 14.9 13 Norte 44 Nordeste 0 -- -- 20
2017-11-13 11:00:00 14.3 18 Norte 50 Nordeste 0 -- -- 21
2017-11-13 10:00:00 13.8 17 Nordeste 50 Nordeste 0 -- -- 21
2017-11-13 09:00:00 12.2 8 Norte 31 Norte 0 -- -- 34
2017-11-13 08:00:00 11.4 11 Norte 35 Norte 0 -- -- 29
2017-11-13 07:00:00 10.7 9 Norte 28 Nordeste 0 -- -- 39
2017-11-13 06:00:00 10.6 7 Norte 28 Este 0 -- -- 42
2017-11-13 05:00:00 10.6 8 Norte 39 Nordeste 0 -- -- 47
2017-11-13 04:00:00 10.8 15 Norte 51 Norte 0 -- -- 50
2017-11-13 03:00:00 10.7 21 Nordeste 55 Norte 0 -- -- 51
2017-11-13 02:00:00 11.1 17 Norte 39 Nordeste 0 -- -- 61
2017-11-13 01:00:00 13.6 15 Norte 23 Norte 0 -- -- 70
2017-11-13 00:00:00 13.4 15 Norte 22 Norte 0 -- -- 71
2017-11-12 23:00:00 15.4 10 Oeste 21 Oeste 0 -- -- 66
2017-11-12 22:00:00 14.8 10 Oeste 21 Oeste 0 -- -- 69
2017-11-12 21:00:00 14.2 7 Oeste 14 Sudoeste 0 -- -- 72
2017-11-12 20:00:00 14.6 5 Oeste 12 Noroeste 0 -- -- 68
2017-11-12 19:00:00 15.3 7 Noroeste 15 Oeste 0 -- -- 69
2017-11-12 18:00:00 15.5 5 Oeste 13 Sudoeste 0 -- -- 71
2017-11-12 17:00:00 17.6 2 Sudoeste 5 Sudeste 0 -- -- 65
2017-11-12 16:00:00 18.1 3 Sudeste 8 Sur 0 -- -- 61
2017-11-12 15:00:00 19.1 4 Sudeste 11 Sudeste 0 -- -- 59
2017-11-12 14:00:00 19 4 Sur 13 Sudeste 0 -- -- 59
2017-11-12 13:00:00 18.2 6 Este 17 Este 0 -- -- 62
2017-11-12 12:00:00 17.7 10 Este 17 Este 0 -- -- 65
2017-11-12 11:00:00 16.3 3 Norte 12 Noroeste 0 -- -- 65
2017-11-12 10:00:00 14.1 10 Noroeste 16 Noroeste 0 -- -- 66
2017-11-12 09:00:00 12.6 13 Noroeste 26 Noroeste 0 -- -- 67
2017-11-12 08:00:00 12.2 13 Noroeste 24 Noroeste 0 -- -- 67
2017-11-12 07:00:00 11.5 18 Noroeste 24 Noroeste 0 -- -- 71
2017-11-12 06:00:00 12.5 14 Noroeste 22 Noroeste 0 -- -- 67
2017-11-12 05:00:00 11.7 17 Noroeste 23 Noroeste 0 -- -- 72
2017-11-12 04:00:00 12.5 9 Noroeste 22 Norte 0 -- -- 69
2017-11-12 03:00:00 12.1 11 Noroeste 18 Noroeste 0 -- -- 70
2017-11-12 02:00:00 11.7 8 Norte 17 Norte 0 -- -- 70
2017-11-12 01:00:00 12.7 8 Norte 23 Norte 0 -- -- 64
2017-11-12 00:00:00 13.1 13 Norte 27 Norte 0 -- -- 62
2017-11-11 23:00:00 12.5 13 Norte 21 Noroeste 0 -- -- 69
2017-11-11 22:00:00 12.9 8 Noroeste 18 Noroeste 0 -- -- 69
2017-11-11 21:00:00 13.1 14 Noroeste 18 Noroeste 0 -- -- 71
2017-11-11 20:00:00 13.6 11 Noroeste 15 Noroeste 0 -- -- 67
2017-11-11 19:00:00 14.3 6 Noroeste 12 Noroeste 0 -- -- 67
2017-11-11 18:00:00 14.4 5 Oeste 11 Noroeste 0 -- -- 68
2017-11-11 17:00:00 16 3 Sudoeste 6 Norte 0 -- -- 69
2017-11-11 16:00:00 15.9 0 Calma 6 Oeste 0 -- -- 67
2017-11-11 15:00:00 15.8 4 Oeste 7 Sudoeste 0 -- -- 64
2017-11-11 14:00:00 16.2 3 Sudoeste 5 Sur 0 -- -- 63
2017-11-11 13:00:00 15.6 3 Sudeste 18 Noroeste 0 -- -- 63
2017-11-11 12:00:00 14 13 Noroeste 20 Noroeste 0 -- -- 59
2017-11-11 11:00:00 15.9 7 Noroeste 13 Noroeste 0 -- -- 55
2017-11-11 10:00:00 14.8 9 Noroeste 22 Noroeste 0 -- -- 57
2017-11-11 09:00:00 12.7 14 Noroeste 29 Noroeste 0 -- -- 57
2017-11-11 08:00:00 11.6 15 Noroeste 26 Noroeste 0 -- -- 61
2017-11-11 07:00:00 11.7 13 Noroeste 17 Noroeste 0 -- -- 65
2017-11-11 06:00:00 10.6 10 Noroeste 23 Noroeste 0 -- -- 69
2017-11-11 05:00:00 11.3 12 Norte 15 Noroeste 0 -- -- 64
2017-11-11 04:00:00 11 12 Norte 21 Norte 0 -- -- 60
2017-11-11 03:00:00 11.1 12 Noroeste 24 Noroeste 0 -- -- 57
2017-11-11 02:00:00 11.4 12 Noroeste 22 Noroeste 0 -- -- 57
2017-11-11 01:00:00 11.2 12 Noroeste 30 Noroeste 0 -- -- 57
2017-11-11 00:00:00 12.3 12 Noroeste 21 Noroeste 0 -- -- 55
2017-11-10 23:00:00 11.9 15 Noroeste 24 Noroeste 0 -- -- 59
2017-11-10 22:00:00 11.6 8 Noroeste 18 Noroeste 0 -- -- 60
2017-11-10 21:00:00 12.5 15 Noroeste 23 Noroeste 0 -- -- 55
2017-11-10 20:00:00 13.1 7 Noroeste 12 Oeste 0 -- -- 54
2017-11-10 19:00:00 12.4 6 Norte 10 Norte 0 -- -- 64
2017-11-10 18:00:00 13 3 Norte 10 Sudoeste 0 -- -- 61
2017-11-10 17:00:00 14.4 8 Oeste 17 Oeste 0 -- -- 57
2017-11-10 16:00:00 15 10 Oeste 30 Sudoeste 0 -- -- 55
2017-11-10 15:00:00 16 8 Sudoeste 24 Sur 0 -- -- 56
2017-11-10 14:00:00 16.9 9 Sudoeste 21 Sudoeste 0 -- -- 53
2017-11-10 13:00:00 15.4 9 Oeste 22 Noroeste 0 -- -- 45
2017-11-10 12:00:00 13.9 9 Noroeste 19 Noroeste 0 -- -- 46
2017-11-10 11:00:00 12.5 10 Norte 26 Norte 0 -- -- 53
2017-11-10 10:00:00 10.1 17 Norte 28 Norte 0 -- -- 61
2017-11-10 09:00:00 8 18 Norte 33 Norte 0 -- -- 69
2017-11-10 08:00:00 6.6 18 Norte 26 Norte 0 -- -- 74
2017-11-10 07:00:00 7 16 Norte 22 Noroeste 0 -- -- 72
2017-11-10 06:00:00 6.6 13 Noroeste 22 Noroeste 0 -- -- 74
2017-11-10 05:00:00 7.1 13 Noroeste 20 Noroeste 0 -- -- 72
2017-11-10 04:00:00 7.6 11 Noroeste 16 Norte 0 -- -- 69
2017-11-10 03:00:00 7.8 10 Norte 19 Norte 0 -- -- 69
2017-11-10 02:00:00 7.6 8 Norte 23 Norte 0 -- -- 70
2017-11-10 01:00:00 7.9 14 Norte 17 Norte 0 -- -- 72
2017-11-10 00:00:00 8.5 12 Norte 15 Norte 0 -- -- 69
2017-11-09 23:00:00 8.5 6 Oeste 33 Norte 0 -- -- 71
2017-11-09 22:00:00 8.7 20 Norte 31 Norte 0 -- -- 67
2017-11-09 21:00:00 9.2 20 Norte 29 Norte 0 -- -- 66
2017-11-09 20:00:00 9.6 21 Norte 28 Norte 0 -- -- 65
2017-11-09 19:00:00 10 11 Norte 26 Norte 0 -- -- 65
2017-11-09 18:00:00 10.3 12 Norte 21 Norte 0 -- -- 65
2017-11-09 17:00:00 10.8 9 Nordeste 18 Norte 0 -- -- 66
2017-11-09 16:00:00 11.4 9 Nordeste 14 Nordeste 0 -- -- 67
2017-11-09 15:00:00 12.3 6 Norte 14 Nordeste 0 -- -- 56
2017-11-09 14:00:00 12.6 6 Nordeste 18 Este 0 -- -- 54
2017-11-09 13:00:00 12.6 5 Nordeste 18 Nordeste 0 -- -- 54
2017-11-09 12:00:00 12.9 10 Norte 21 Nordeste 0 -- -- 52
2017-11-09 11:00:00 12.1 9 Norte 23 Noroeste 0 -- -- 59
2017-11-09 10:00:00 10 15 Norte 27 Norte 0 -- -- 62
2017-11-09 09:00:00 8.8 17 Noroeste 25 Norte 0 -- -- 64
2017-11-09 08:00:00 7.4 13 Norte 25 Noroeste 0 -- -- 70
2017-11-09 07:00:00 8 17 Norte 29 Norte 0 -- -- 68
2017-11-09 06:00:00 7.5 21 Norte 30 Norte 0 -- -- 70
2017-11-09 05:00:00 9.3 13 Noroeste 21 Noroeste 0 -- -- 65
2017-11-09 04:00:00 9.4 12 Noroeste 22 Noroeste 0 -- -- 60
2017-11-09 03:00:00 8.7 10 Noroeste 23 Noroeste 0 -- -- 62
2017-11-09 02:00:00 9 13 Norte 22 Noroeste 0 -- -- 61
2017-11-09 01:00:00 9.8 15 Noroeste 30 Norte 0 -- -- 59
2017-11-09 00:00:00 10.1 16 Norte 25 Noroeste 0 -- -- 59
2017-11-08 23:00:00 10.3 12 Noroeste 18 Noroeste 0 -- -- 61
2017-11-08 22:00:00 10.6 11 Noroeste 19 Noroeste 0 -- -- 63
2017-11-08 21:00:00 11.7 13 Norte 18 Norte 0 -- -- 54
2017-11-08 20:00:00 12.5 12 Norte 18 Nordeste 0 -- -- 58
2017-11-08 19:00:00 13 6 Sur 15 Sur 0 -- -- 61
2017-11-08 18:00:00 12.4 7 Sur 14 Sur 0 -- -- 73
2017-11-08 17:00:00 12.7 6 Noroeste 11 Noroeste 0 -- -- 65
2017-11-08 16:00:00 13.3 7 Noroeste 14 Noroeste 0 -- -- 60
2017-11-08 15:00:00 13.4 8 Noroeste 12 Noroeste 0 -- -- 59
2017-11-08 14:00:00 13.9 5 Noroeste 12 Noroeste 0 -- -- 58
2017-11-08 13:00:00 14.6 4 Norte 10 Noroeste 0 -- -- 53
2017-11-08 12:00:00 14.9 5 Sudoeste 9 Sudoeste 0 -- -- 56
2017-11-08 11:00:00 12.1 2 Norte 17 Noroeste 0 -- -- 58
2017-11-08 10:00:00 10.7 13 Norte 23 Noroeste 0 -- -- 61
2017-11-08 09:00:00 9.4 14 Norte 25 Noroeste 0 -- -- 64
2017-11-08 08:00:00 9.4 12 Norte 23 Norte 0 -- -- 61
2017-11-08 07:00:00 8.8 7 Norte 24 Noroeste 0 -- -- 63
2017-11-08 06:00:00 8.5 16 Norte 23 Noroeste 0 -- -- 62
2017-11-08 05:00:00 8.7 16 Noroeste 27 Norte 0 -- -- 63
2017-11-08 04:00:00 8.3 14 Noroeste 27 Norte 0 -- -- 66
2017-11-08 03:00:00 8.4 18 Norte 25 Norte 0 -- -- 64
2017-11-08 02:00:00 8.1 17 Noroeste 25 Norte 0 -- -- 64
2017-11-08 01:00:00 8.4 19 Norte 27 Norte 0 -- -- 59
2017-11-08 00:00:00 7.5 20 Norte 27 Noroeste 0 -- -- 64
2017-11-07 23:00:00 9 19 Noroeste 26 Noroeste 0 -- -- 60
2017-11-07 22:00:00 10.2 19 Norte 26 Norte 0 -- -- 61
2017-11-07 21:00:00 11 8 Norte 15 Nordeste 0 -- -- 62
2017-11-07 20:00:00 12 11 Nordeste 20 Nordeste 0 -- -- 58
2017-11-07 19:00:00 11.7 15 Nordeste 24 Nordeste 0 -- -- 58
2017-11-07 18:00:00 12.1 12 Nordeste 19 Nordeste 0 -- -- 59
2017-11-07 17:00:00 13.9 6 Nordeste 14 Este 0 -- -- 52
2017-11-07 16:00:00 15.5 5 Sudeste 15 Sudoeste 0 -- -- 46
2017-11-07 15:00:00 16 5 Sur 18 Sudeste 0 -- -- 48
2017-11-07 14:00:00 16.9 10 Sur 22 Sur 0 -- -- 43
2017-11-07 13:00:00 15.5 4 Sudeste 9 Sur 0 -- -- 44
2017-11-07 12:00:00 15.1 5 Sudoeste 11 Sudoeste 0 -- -- 41
2017-11-07 11:00:00 13.3 5 Noroeste 10 Norte 0 -- -- 41
2017-11-07 10:00:00 10 6 Norte 22 Noroeste 0 -- -- 46
2017-11-07 09:00:00 7.9 17 Noroeste 23 Noroeste 0 -- -- 45
2017-11-07 08:00:00 6.8 16 Noroeste 23 Noroeste 0 -- -- 47
2017-11-07 07:00:00 6.4 17 Noroeste 23 Noroeste 0 -- -- 49
2017-11-07 06:00:00 7.2 9 Norte 25 Noroeste 0 -- -- 49
2017-11-07 05:00:00 7.4 21 Norte 34 Norte 0 -- -- 48
2017-11-07 04:00:00 8.6 24 Norte 37 Norte 0 -- -- 45
2017-11-07 03:00:00 7.9 21 Norte 32 Norte 0 -- -- 45
2017-11-07 02:00:00 8.9 12 Norte 19 Norte 0 -- -- 37
2017-11-07 01:00:00 9.3 6 Norte 23 Norte 0 -- -- 32
2017-11-07 00:00:00 9.2 14 Norte 22 Noroeste 0 -- -- 33
2017-11-06 23:00:00 9.1 10 Norte 19 Noroeste 0 -- -- 34
2017-11-06 22:00:00 9.5 17 Noroeste 25 Noroeste 0 -- -- 33
2017-11-06 21:00:00 11.3 7 Norte 18 Nordeste 0 -- -- 27
2017-11-06 20:00:00 13 8 Nordeste 32 Norte 0 -- -- 22
2017-11-06 19:00:00 11.7 11 Norte 18 Nordeste 0 -- -- 32
2017-11-06 18:00:00 13.5 7 Noroeste 14 Noroeste 0 -- -- 30
2017-11-06 17:00:00 15.7 4 Noroeste 16 Oeste 0 -- -- 24
2017-11-06 16:00:00 16.6 5 Oeste 21 Norte 0 -- -- 22
2017-11-06 15:00:00 16.3 10 Norte 33 Norte 0 -- -- 20
2017-11-06 14:00:00 16.1 12 Nordeste 42 Nordeste 0 -- -- 22
2017-11-06 13:00:00 15.7 14 Norte 53 Nordeste 0 -- -- 27
2017-11-06 12:00:00 15.3 12 Nordeste 48 Noroeste 0 -- -- 32
2017-11-06 11:00:00 14.5 14 Oeste 43 Noroeste 0 -- -- 45
2017-11-06 10:00:00 12.7 13 Oeste 31 Noroeste 0 -- -- 41
2017-11-06 09:00:00 10.6 9 Oeste 22 Oeste 0 -- -- 54
2017-11-06 08:00:00 8.6 4 Oeste 13 Noroeste 0 -- -- 56
2017-11-06 07:00:00 10.4 7 Noroeste 20 Oeste 0 -- -- 41
2017-11-06 06:00:00 10.8 11 Oeste 22 Oeste 0 -- -- 40
2017-11-06 05:00:00 8.2 8 Norte 18 Noroeste 0 -- -- 62
2017-11-06 04:00:00 8.9 7 Noroeste 17 Nordeste 0 -- -- 59
2017-11-06 03:00:00 9.5 8 Norte 31 Noroeste 0 -- -- 54
2017-11-06 02:00:00 10.2 11 Norte 35 Norte 0 -- -- 53
2017-11-06 01:00:00 10.1 9 Norte 26 Este 0 -- -- 55
2017-11-06 00:00:00 10.6 15 Noroeste 24 Norte 0 -- -- 64
2017-11-05 23:00:00 11.3 11 Nordeste 29 Norte 0 -- -- 62
2017-11-05 22:00:00 10.6 13 Norte 22 Noroeste 0.2 -- -- 73
2017-11-05 21:00:00 11 6 Noroeste 17 Norte 0.2 -- -- 76
2017-11-05 20:00:00 10.7 12 Norte 30 Nordeste 1.8 -- -- 83
2017-11-05 19:00:00 10.8 12 Nordeste 30 Nordeste 1.4 -- -- 88
2017-11-05 18:00:00 10.9 19 Norte 31 Norte 3.8 -- -- 89
2017-11-05 17:00:00 12.9 9 Nordeste 18 Nordeste 0.8 -- -- 83
2017-11-05 16:00:00 14.2 12 Norte 15 Norte 2 -- -- 90
2017-11-05 15:00:00 18.5 4 Este 9 Este 0 -- -- 64
2017-11-05 14:00:00 18.5 5 Este 17 Este 0 -- -- 66
2017-11-05 13:00:00 18 7 Este 14 Este 0 -- -- 73
2017-11-05 12:00:00 17.9 6 Noroeste 12 Noroeste 0 -- -- 76
2017-11-05 11:00:00 17.2 7 Norte 15 Noroeste 0 -- -- 82
2017-11-05 10:00:00 17.1 6 Noroeste 23 Noroeste 0 -- -- 84
2017-11-05 09:00:00 15.7 12 Noroeste 26 Oeste 0 -- -- 89
2017-11-05 08:00:00 14 12 Noroeste 24 Noroeste 0 -- -- 94
2017-11-05 07:00:00 14 17 Noroeste 24 Noroeste 0 -- -- 93
2017-11-05 06:00:00 13.9 9 Noroeste 14 Noroeste 0 -- -- 96
2017-11-05 05:00:00 14.1 8 Noroeste 13 Norte 0.4 -- -- 96
2017-11-05 04:00:00 14.8 6 Norte 15 Sudoeste 0.6 -- -- 94
2017-11-05 03:00:00 14.7 6 Nordeste 18 Norte 0 -- -- 91
2017-11-05 02:00:00 14.4 14 Noroeste 24 Noroeste 0 -- -- 93
2017-11-05 01:00:00 14.6 12 Noroeste 19 Noroeste 0 -- -- 92
2017-11-05 00:00:00 15 8 Noroeste 15 Sudoeste 0.4 -- -- 92
2017-11-04 23:00:00 15.4 10 Noroeste 26 Noroeste 0.8 -- -- 89
2017-11-04 22:00:00 15.1 19 Norte 27 Noroeste 0 -- -- 85
2017-11-04 21:00:00 15.4 14 Noroeste 40 Noroeste 5.6 -- -- 88
2017-11-04 20:00:00 18.8 8 Noroeste 14 Noroeste 0 -- -- 81
2017-11-04 19:00:00 19.2 4 Oeste 17 Oeste 0 -- -- 86
2017-11-04 18:00:00 19.5 10 Sudoeste 24 Sudoeste 0 -- -- 84
2017-11-04 17:00:00 20.1 15 Sur 23 Sudoeste 0 -- -- 80
2017-11-04 16:00:00 22.2 6 Sur 12 Sur 0 -- -- 79
2017-11-04 15:00:00 22 4 Sur 8 Sudeste 0 -- -- 79
2017-11-04 14:00:00 22.2 4 Sur 15 Sudoeste 0 -- -- 78
2017-11-04 13:00:00 20.9 7 Sudoeste 19 Oeste 0 -- -- 80
2017-11-04 12:00:00 19.6 10 Noroeste 16 Noroeste 0 -- -- 81
2017-11-04 11:00:00 19.4 7 Nordeste 21 Este 0 -- -- 84
2017-11-04 10:00:00 18.6 8 Norte 26 Norte 0 -- -- 85
2017-11-04 09:00:00 16.1 15 Norte 23 Noroeste 0 -- -- 91
2017-11-04 08:00:00 16 10 Noroeste 20 Noroeste 0 -- -- 91
2017-11-04 07:00:00 15.1 16 Noroeste 25 Noroeste 0 -- -- 91
2017-11-04 06:00:00 16.6 9 Norte 21 Noroeste 0 -- -- 89
2017-11-04 05:00:00 16.9 4 Noroeste 15 Noroeste 0 -- -- 88
2017-11-04 04:00:00 17.4 10 Noroeste 13 Noroeste 0 -- -- 85
2017-11-04 03:00:00 17.2 5 Oeste 10 Oeste 0 -- -- 88
2017-11-04 02:00:00 17.1 5 Sudoeste 10 Sudoeste 0 -- -- 88
2017-11-04 01:00:00 17.1 6 Sudoeste 12 Sudoeste 0 -- -- 88
2017-11-04 00:00:00 17 5 Sudoeste 12 Sudoeste 0 -- -- 86
2017-11-03 23:00:00 17.6 6 Sudoeste 18 Sudoeste 0 -- -- 84
2017-11-03 22:00:00 17.8 7 Oeste 23 Sudoeste 0 -- -- 85
2017-11-03 21:00:00 18 11 Oeste 22 Sudoeste 0 -- -- 86
2017-11-03 20:00:00 18.5 13 Sudoeste 27 Sudoeste 0 -- -- 86
2017-11-03 19:00:00 19 10 Sudoeste 41 Sudoeste 0 -- -- 84
2017-11-03 18:00:00 19.2 18 Sur 39 Sudoeste 0 -- -- 83
2017-11-03 17:00:00 20 24 Sur 42 Sudoeste 0 -- -- 79
2017-11-03 16:00:00 20.4 21 Sur 36 Sudoeste 0 -- -- 77
2017-11-03 15:00:00 20.6 21 Sur 41 Sur 0 -- -- 77
2017-11-03 14:00:00 22.3 11 Sur 18 Sur 0 -- -- 76
2017-11-03 13:00:00 21.9 8 Sur 13 Sur 0 -- -- 75
2017-11-03 12:00:00 20.1 5 Sur 8 Sudeste 0 -- -- 78
2017-11-03 11:00:00 17.1 5 Norte 13 Noroeste 0 -- -- 87
2017-11-03 10:00:00 16.1 9 Noroeste 19 Noroeste 0 -- -- 88
2017-11-03 09:00:00 14.4 13 Noroeste 21 Noroeste 0 -- -- 91
2017-11-03 08:00:00 13.1 10 Noroeste 17 Norte 0 -- -- 95
2017-11-03 07:00:00 13.4 11 Noroeste 15 Noroeste 0 -- -- 89
2017-11-03 06:00:00 14.4 13 Noroeste 18 Noroeste 0 -- -- 88
2017-11-03 05:00:00 15.5 13 Noroeste 19 Noroeste 0 -- -- 85
2017-11-03 04:00:00 16.2 7 Noroeste 15 Noroeste 0 -- -- 82
2017-11-03 03:00:00 16.5 8 Oeste 18 Sudoeste 0 -- -- 84
2017-11-03 02:00:00 16.3 6 Noroeste 13 Noroeste 0 -- -- 85
2017-11-03 01:00:00 17.1 6 Oeste 17 Oeste 0 -- -- 81
2017-11-03 00:00:00 17.8 6 Noroeste 18 Noroeste 0 -- -- 82
2017-11-02 23:00:00 17.8 6 Noroeste 15 Sudoeste 0 -- -- 79
2017-11-02 22:00:00 17.8 5 Noroeste 15 Noroeste 0 -- -- 81
2017-11-02 21:00:00 18.4 5 Oeste 19 Sudoeste 0 -- -- 81
2017-11-02 20:00:00 18.8 13 Sudoeste 33 Oeste 0 -- -- 83
2017-11-02 19:00:00 19.3 13 Sudoeste 33 Sudoeste 0 -- -- 83
2017-11-02 18:00:00 19.5 11 Sudoeste 37 Sudoeste 0 -- -- 82
2017-11-02 17:00:00 19.9 13 Sudoeste 37 Sur 0 -- -- 77
2017-11-02 16:00:00 20.2 15 Sudoeste 46 Sudoeste 0 -- -- 77
2017-11-02 15:00:00 21.2 23 Sur 51 Sur 0 -- -- 73
2017-11-02 14:00:00 21.5 21 Sur 49 Sudoeste 0 -- -- 74
2017-11-02 13:00:00 21.8 21 Sur 42 Sur 0 -- -- 74
2017-11-02 12:00:00 21.2 21 Sur 37 Sur 0 -- -- 74
2017-11-02 11:00:00 21.2 10 Sudoeste 25 Sur 0 -- -- 71
2017-11-02 10:00:00 19.3 10 Sur 19 Sur 0 -- -- 78
2017-11-02 09:00:00 18.6 8 Sudoeste 15 Sudoeste 0 -- -- 81
2017-11-02 08:00:00 17 7 Sudoeste 17 Sudoeste 0 -- -- 84
2017-11-02 07:00:00 17.3 8 Sudoeste 17 Oeste 0 -- -- 86
2017-11-02 06:00:00 16.9 6 Oeste 16 Oeste 0 -- -- 86
2017-11-02 05:00:00 16.5 6 Sudoeste 12 Sudoeste 0 -- -- 87
2017-11-02 04:00:00 16.9 7 Sudoeste 16 Oeste 0 -- -- 84
2017-11-02 03:00:00 17.1 7 Oeste 14 Oeste 0 -- -- 83
2017-11-02 02:00:00 15.9 5 Sudoeste 10 Sudoeste 0 -- -- 85
2017-11-02 01:00:00 16.3 2 Sudoeste 8 Oeste 0 -- -- 82
2017-11-02 00:00:00 16.2 0 Calma 8 Oeste 0 -- -- 80
2017-11-01 23:00:00 16.7 5 Sudoeste 12 Oeste 0 -- -- 78
2017-11-01 22:00:00 17.3 6 Oeste 16 Oeste 0 -- -- 79
2017-11-01 21:00:00 17.4 7 Oeste 17 Noroeste 0 -- -- 80
2017-11-01 20:00:00 17.5 8 Oeste 18 Oeste 0 -- -- 79
2017-11-01 19:00:00 17.6 9 Oeste 21 Sudoeste 0 -- -- 77
2017-11-01 18:00:00 17.9 8 Sudoeste 26 Sudoeste 0 -- -- 74
2017-11-01 17:00:00 18.7 12 Sudoeste 21 Sudoeste 0 -- -- 74
2017-11-01 16:00:00 20.7 8 Sur 19 Sudoeste 0 -- -- 67
2017-11-01 15:00:00 21.6 9 Sur 15 Sur 0 -- -- 67
2017-11-01 14:00:00 21.8 8 Sur 17 Sur 0 -- -- 67
2017-11-01 13:00:00 21.3 9 Sur 14 Sur 0 -- -- 67
2017-11-01 12:00:00 19.7 6 Sudeste 9 Sudeste 0 -- -- 71
2017-11-01 11:00:00 19.5 4 Sudeste 6 Sur 0 -- -- 70
2017-11-01 10:00:00 16 5 Noroeste 17 Noroeste 0 -- -- 76
2017-11-01 09:00:00 14.6 8 Noroeste 14 Noroeste 0 -- -- 76
2017-11-01 08:00:00 12.9 9 Noroeste 18 Noroeste 0 -- -- 80
2017-11-01 07:00:00 12.2 7 Noroeste 10 Noroeste 0 -- -- 79
2017-11-01 06:00:00 12.1 7 Noroeste 12 Noroeste 0 -- -- 76
2017-11-01 05:00:00 12.5 7 Noroeste 16 Noroeste 0 -- -- 76
2017-11-01 04:00:00 13.3 11 Noroeste 18 Noroeste 0 -- -- 72
2017-11-01 03:00:00 13.4 13 Noroeste 21 Noroeste 0 -- -- 73
2017-11-01 02:00:00 13.2 8 Noroeste 17 Noroeste 0 -- -- 68
2017-11-01 01:00:00 13.1 14 Noroeste 21 Noroeste 0 -- -- 69
2017-11-01 00:00:00 12.8 16 Noroeste 21 Noroeste 0 -- -- 70
2017-10-31 23:00:00 13.3 13 Noroeste 16 Noroeste 0 -- -- 69
2017-10-31 22:00:00 13.5 9 Noroeste 12 Noroeste 0 -- -- 71
2017-10-31 21:00:00 14.3 8 Noroeste 13 Noroeste 0 -- -- 70
2017-10-31 20:00:00 14.7 8 Noroeste 14 Norte 0 -- -- 66
2017-10-31 19:00:00 15.2 6 Nordeste 18 Este 0 -- -- 67
2017-10-31 18:00:00 16.4 10 Nordeste 25 Este 0 -- -- 67
2017-10-31 17:00:00 17 16 Este 25 Este 0 -- -- 64
2017-10-31 16:00:00 17.6 14 Este 24 Este 0 -- -- 61
2017-10-31 15:00:00 18.8 11 Este 22 Este 0 -- -- 53
2017-10-31 14:00:00 19.6 5 Sudeste 14 Este 0 -- -- 48
2017-10-31 13:00:00 19.4 6 Sur 11 Sudeste 0 -- -- 49
2017-10-31 12:00:00 18.9 7 Sur 14 Este 0 -- -- 51
2017-10-31 11:00:00 16.7 4 Noroeste 15 Norte 0 -- -- 54
2017-10-31 10:00:00 14.3 6 Norte 23 Norte 0 -- -- 62
2017-10-31 09:00:00 12.4 8 Noroeste 17 Noroeste 0 -- -- 70
2017-10-31 08:00:00 11 11 Norte 21 Norte 0 -- -- 74
2017-10-31 07:00:00 10.9 3 Noroeste 9 Oeste 0 -- -- 74
2017-10-31 06:00:00 11 5 Noroeste 18 Noroeste 0 -- -- 76
2017-10-31 05:00:00 11.7 10 Norte 22 Noroeste 0 -- -- 70
2017-10-31 04:00:00 12.1 5 Oeste 22 Norte 0 -- -- 71
2017-10-31 03:00:00 12.5 14 Norte 21 Norte 0 -- -- 69
2017-10-31 02:00:00 13.1 6 Norte 18 Norte 0 -- -- 67
2017-10-31 01:00:00 13.8 10 Norte 31 Norte 0 -- -- 66
2017-10-31 00:00:00 14 21 Norte 33 Noroeste 0 -- -- 65
2017-10-30 23:00:00 14.6 22 Norte 33 Norte 0 -- -- 66
2017-10-30 22:00:00 14.7 15 Norte 33 Norte 0 -- -- 69
2017-10-30 21:00:00 14.8 21 Norte 28 Norte 0 -- -- 68
2017-10-30 20:00:00 15.6 15 Norte 30 Norte 0 -- -- 65
2017-10-30 19:00:00 16.7 13 Norte 23 Norte 0 -- -- 65
2017-10-30 18:00:00 17.3 3 Oeste 6 Noroeste 0 -- -- 75
2017-10-30 17:00:00 18.9 0 Calma 6 Sudeste 0 -- -- 69
2017-10-30 16:00:00 19.7 4 Sur 9 Sur 0 -- -- 65
2017-10-30 15:00:00 21 6 Sur 10 Sur 0 -- -- 61
2017-10-30 14:00:00 21 7 Sur 10 Sur 0 -- -- 60
2017-10-30 13:00:00 20 5 Sudeste 9 Sudeste 0 -- -- 63
2017-10-30 12:00:00 18.9 5 Sudeste 11 Norte 0 -- -- 66
2017-10-30 11:00:00 16.8 10 Norte 19 Norte 0 -- -- 68
2017-10-30 10:00:00 14.8 16 Norte 28 Noroeste 0 -- -- 71
2017-10-30 09:00:00 13.1 19 Noroeste 26 Noroeste 0 -- -- 75
2017-10-30 08:00:00 12.3 17 Noroeste 23 Noroeste 0 -- -- 76
2017-10-30 07:00:00 13.2 11 Norte 22 Noroeste 0 -- -- 71
2017-10-30 06:00:00 12.9 9 Norte 22 Noroeste 0 -- -- 72
2017-10-30 05:00:00 12.9 17 Noroeste 26 Noroeste 0 -- -- 71
2017-10-30 04:00:00 12.6 17 Noroeste 23 Noroeste 0 -- -- 73
2017-10-30 03:00:00 14.5 13 Noroeste 18 Noroeste 0 -- -- 66
2017-10-30 02:00:00 15.5 13 Noroeste 21 Noroeste 0 -- -- 64
2017-10-30 01:00:00 14.8 17 Noroeste 23 Noroeste 0 -- -- 66
2017-10-30 00:00:00 15.9 14 Noroeste 20 Norte 0 -- -- 63
2017-10-29 23:00:00 15.4 14 Norte 21 Norte 0 -- -- 65
2017-10-29 22:00:00 15.6 13 Noroeste 21 Noroeste 0 -- -- 59
2017-10-29 21:00:00 16.4 8 Noroeste 15 Norte 0 -- -- 79
2017-10-29 20:00:00 17 5 Norte 15 Nordeste 0 -- -- 79
2017-10-29 19:00:00 17.7 10 Nordeste 24 Nordeste 0 -- -- 78
2017-10-29 18:00:00 18.1 13 Nordeste 22 Nordeste 0 -- -- 80
2017-10-29 17:00:00 18.8 10 Nordeste 20 Este 0 -- -- 78
2017-10-29 16:00:00 19.4 14 Este 22 Este 0 -- -- 76
2017-10-29 15:00:00 19.9 13 Este 19 Este 0 -- -- 71
2017-10-29 14:00:00 22.1 8 Este 17 Este 0 -- -- 65
2017-10-29 13:00:00 21.3 6 Sudeste 11 Sur 0 -- -- 63
2017-10-29 12:00:00 21.6 6 Sur 14 Oeste 0 -- -- 64
2017-10-29 11:00:00 19.1 4 Noroeste 22 Noroeste 0 -- -- 63
2017-10-29 10:00:00 16.6 14 Noroeste 27 Noroeste 0 -- -- 67
2017-10-29 09:00:00 15.4 13 Noroeste 22 Noroeste 0 -- -- 74
2017-10-29 08:00:00 14.1 17 Noroeste 25 Noroeste 0 -- -- 75
2017-10-29 07:00:00 15.7 7 Noroeste 18 Oeste 0 -- -- 77
2017-10-29 06:00:00 15.3 9 Noroeste 23 Noroeste 0 -- -- 76
2017-10-29 05:00:00 14.9 11 Noroeste 22 Noroeste 0 -- -- 73
2017-10-29 04:00:00 15.1 15 Noroeste 25 Noroeste 0 -- -- 72
2017-10-29 03:00:00 14.6 13 Noroeste 25 Noroeste 0 -- -- 75
2017-10-29 02:00:00 14.3 16 Norte 25 Noroeste 0 -- -- 77
2017-10-29 01:00:00 15.5 5 Norte 9 Norte 0 -- -- 91
2017-10-29 00:00:00 16.4 3 Nordeste 12 Noroeste 0 -- -- 88
2017-10-28 23:00:00 16.7 8 Noroeste 11 Noroeste 0 -- -- 88
2017-10-28 22:00:00 17.1 4 Norte 8 Oeste 0 -- -- 86
2017-10-28 21:00:00 18.4 6 Oeste 20 Sudoeste 0 -- -- 80
2017-10-28 20:00:00 18.7 10 Oeste 24 Sudoeste 0 -- -- 85
2017-10-28 19:00:00 19.2 13 Sudoeste 27 Oeste 0 -- -- 84
2017-10-28 18:00:00 20.3 12 Sudoeste 27 Sur 0 -- -- 78
2017-10-28 17:00:00 21.3 13 Sur 37 Sudoeste 0 -- -- 73
2017-10-28 16:00:00 22.9 8 Sur 19 Sudoeste 0 -- -- 71
2017-10-28 15:00:00 22.4 7 Sudeste 14 Sudeste 0 -- -- 68
2017-10-28 14:00:00 21.3 6 Sudeste 9 Este 0 -- -- 64
2017-10-28 13:00:00 20 3 Este 6 Sudeste 0 -- -- 69
2017-10-28 12:00:00 18.9 4 Nordeste 6 Nordeste 0 -- -- 72
2017-10-28 11:00:00 17.6 0 Calma 17 Noroeste 0 -- -- 79
2017-10-28 10:00:00 16 14 Noroeste 20 Noroeste 0 -- -- 78
2017-10-28 09:00:00 15.6 10 Noroeste 18 Noroeste 0 -- -- 79
2017-10-28 08:00:00 15.5 4 Norte 13 Noroeste 0 -- -- 77
2017-10-28 07:00:00 15.6 8 Norte 18 Noroeste 0 -- -- 75
2017-10-28 06:00:00 15.9 13 Noroeste 20 Noroeste 0 -- -- 74
2017-10-28 05:00:00 15.3 7 Noroeste 23 Noroeste 0 -- -- 79
2017-10-28 04:00:00 16.9 10 Noroeste 16 Norte 0 -- -- 74
2017-10-28 03:00:00 16.9 11 Norte 17 Norte 0 -- -- 79
2017-10-28 02:00:00 17.4 7 Nordeste 15 Este 0 -- -- 80
2017-10-28 01:00:00 18.1 8 Norte 22 Noroeste 0 -- -- 79
2017-10-28 00:00:00 18.7 12 Noroeste 22 Noroeste 0 -- -- 73
2017-10-27 23:00:00 18.4 12 Norte 20 Nordeste 0 -- -- 68
2017-10-27 22:00:00 19 12 Norte 21 Noroeste 0 -- -- 58
2017-10-27 21:00:00 19.1 8 Norte 22 Noroeste 0 -- -- 60
2017-10-27 20:00:00 19.6 10 Norte 23 Norte 0 -- -- 60
2017-10-27 19:00:00 20 6 Noroeste 14 Oeste 0 -- -- 69
2017-10-27 18:00:00 20.9 4 Sudoeste 9 Nordeste 0 -- -- 76
2017-10-27 17:00:00 20.8 6 Nordeste 17 Este 0 -- -- 79
2017-10-27 16:00:00 21 5 Nordeste 15 Nordeste 0 -- -- 83
2017-10-27 15:00:00 20.5 6 Este 13 Este 0 -- -- 83
2017-10-27 14:00:00 20.7 3 Este 17 Este 0 -- -- 91
2017-10-27 13:00:00 20.4 11 Este 18 Este 0 -- -- 91
2017-10-27 12:00:00 19.5 8 Nordeste 16 Este 0 -- -- 92
2017-10-27 11:00:00 19.3 7 Nordeste 12 Nordeste 0 -- -- 93
2017-10-27 10:00:00 18.4 6 Este 13 Nordeste 0 -- -- 95
2017-10-27 09:00:00 15.7 4 Nordeste 9 Nordeste 0 -- -- 94
2017-10-27 08:00:00 15.8 0 Calma 8 Norte 0 -- -- 95
2017-10-27 07:00:00 15.3 5 Norte 14 Noroeste 0 -- -- 94
2017-10-27 06:00:00 16 10 Noroeste 23 Noroeste 0 -- -- 91
2017-10-27 05:00:00 17 10 Noroeste 20 Noroeste 0 -- -- 89
2017-10-27 04:00:00 16.7 12 Noroeste 18 Noroeste 0 -- -- 95
2017-10-27 03:00:00 15.9 14 Noroeste 21 Noroeste 0 -- -- 99
2017-10-27 02:00:00 17.5 10 Noroeste 14 Noroeste 0 -- -- 99
2017-10-27 01:00:00 18 8 Noroeste 12 Noroeste 0 -- -- 99
2017-10-27 00:00:00 18.5 4 Noroeste 6 Norte 0 -- -- 99
2017-10-26 23:00:00 18.2 2 Noroeste 7 Nordeste 0 -- -- 99
2017-10-26 22:00:00 17.6 3 Norte 5 Nordeste 0 -- -- 98
2017-10-26 21:00:00 17.9 0 Calma 6 Norte 0 -- -- 97
2017-10-26 20:00:00 18.2 4 Nordeste 10 Este 0 -- -- 96
2017-10-26 19:00:00 18.8 5 Este 13 Este 0 -- -- 93
2017-10-26 18:00:00 20.5 5 Este 9 Este 0 -- -- 87
2017-10-26 17:00:00 21.8 3 Sudeste 11 Sudeste 0 -- -- 83
2017-10-26 16:00:00 21.3 6 Sudeste 9 Sudeste 0 -- -- 86
2017-10-26 15:00:00 19.8 4 Este 11 Este 0 -- -- 90
2017-10-26 14:00:00 19.5 8 Este 11 Este 0 -- -- 89
2017-10-26 13:00:00 19.1 7 Este 12 Este 0 -- -- 92
2017-10-26 12:00:00 18.4 3 Nordeste 6 Este 0 -- -- 89
2017-10-26 11:00:00 17.8 0 Calma 9 Noroeste 0 -- -- 93
2017-10-26 10:00:00 16.6 3 Norte 7 Noroeste 0 -- -- 97
2017-10-26 09:00:00 15.3 0 Calma 9 Noroeste 0 -- -- 97
2017-10-26 08:00:00 15.6 3 Noroeste 10 Norte 0 -- -- 97
2017-10-26 07:00:00 16.4 5 Noroeste 9 Noroeste 0 -- -- 97
2017-10-26 06:00:00 17 2 Noroeste 5 Norte 0 -- -- 98
2017-10-26 05:00:00 16.7 2 Nordeste 5 Nordeste 0 -- -- 97
2017-10-26 04:00:00 16.9 2 Norte 4 Norte 0 -- -- 96
2017-10-26 03:00:00 17.1 0 Calma 4 Norte 0 -- -- 95
2017-10-26 02:00:00 16.9 4 Noroeste 7 Noroeste 0 -- -- 95
2017-10-26 01:00:00 16.8 4 Noroeste 7 Noroeste 0 -- -- 95
2017-10-26 00:00:00 17.1 0 Calma 9 Noroeste 0 -- -- 94